WAPP/AMQ METAR and TAF weather

Enter ICAO airport designator
Station Type Date Time Source
WAPP METAR 2020/01/18 23:30 UTC NOAA

WAPP 182330Z 34007KT 310V010 9999 FEW020 31/24 Q1011 NOSIG


Station Type Date Time Source
WAPP Decoded METAR 2020/01/18 23:30 UTC NOAA

Ambon / Pattimura, Indonesia (WAPP) 03-42S 128-05E 12M
Jan 18, 2020 - 06:30 PM EST / 2020.01.18 2330 UTC
Wind: from the NNW (340 degrees) at 8 MPH (7 KT) (direction variable):0
Visibility: greater than 7 mile(s):0
Sky conditions: mostly clear
Temperature: 87 F (31 C)
Heat index: 95.7 F (35.4 C):1
Dew Point: 75 F (24 C)
Relative Humidity: 66%
Pressure (altimeter): 29.85 in. Hg (1011 hPa)
ob: WAPP 182330Z 34007KT 310V010 9999 FEW020 31/24 Q1011 NOSIG
cycle: 23

Station Type Date Time Source
WAPP TAF 2015/06/30 00:57 UTC NOAA

TAF WAPP 302300Z 0100/0124 34006KT 9999 SCT018
TEMPO 0101/0104 7000 -RA BKN017
BECMG 0105/0107 21006KT
BECMG 0109/0111 32006KT

Example: see airport list